Gary Chicago International Airport
KGYY : now visible

Airfield :











YOU CAN JOIN US ON...

 
LOGIN :

Register | Disclaimer

   EN    FR    IT 

 









Legend :    VFR   Marginal VFR   IFR   Intensive IFR   Very Intensive IFR
Visi :
Ceiling :
>= 8 km
>= 3000ft
5 to 8 km
1000 to 3000 ft
1500m to 5 km
500 to 1000 ft
800 to 1500m
200 to 500 ft
< 800m
< 200 ft
Symbols :   Thunderstorms  Fog  Heavy snow  Heavy precipitations  Wind > 20 kt






- Airport Elevation : 591 ft
- IATA code : GYY


KGYY - Gary Chicago International

CURRENT METAR :
  • 300855Z AUTO 00000KT 10SM CLR 04/03 A3033 RMK AO2 T00410031

EXPIRED METARs :
  • 300835Z AUTO 00000KT 7SM CLR 04/03 A3033 RMK AO2 T00420033
  • 300815Z AUTO 00000KT 10SM CLR 05/04 A3033 RMK AO2 T00460038
  • 300755Z AUTO 00000KT 7SM CLR 05/04 A3033 RMK AO2 T00460038
  • 300735Z AUTO 00000KT 10SM CLR 05/04 A3033 RMK AO2 T00480038
  • 300715Z AUTO 00000KT 05/04 A3033 RMK AO2 T00520044 PWINO
  • 300655Z AUTO 00000KT 06/05 A3033 RMK AO2 T00550048 PWINO
  • 300635Z AUTO 00000KT 06/06 A3033 RMK AO2 T00630056 PWINO
  • 300615Z AUTO 00000KT 10SM CLR 08/07 A3033 RMK AO2 T00800067

TAF KGYY
Valid from the 30 at 09:00 until the 01 at 06:00 UTC


300854Z 3009/0106 VRB04KT P6SM FEW250
FM301700 05008KT P6SM FEW030
KZAU FIR / North America



MET'MAP, your aeronautical weather chart ! - Copyright ORBIFLY December 2007 - Disclaimer

ORBIFLY MET'MAP TEAM :

Programming & Development : Alexandra Zaïnal
Original concept : Baudouin d'Aumeries
Technical & hardware support : Manuel Goepfert
Assistance : Marc-Olivier Méhu




SOURCES & CREDITS :

   NOAA       Earth
Advisory